Time;durP1;ratioP1;P1;durP2;ratioP2;P2;SDS_P1;SDS_P2;PMS_P1;PMS_P2;Temp;Humidity;BMP_temperature;BMP_pressure;BME280_temperature;BME280_humidity;BME280_pressure;Samples;Min_cycle;Max_cycle;Signal;HPM_P1;HPM_P2
2021/08/04 00:01:57;;;;;;;3.25;1.70;;;14.10;89.40;;;;;;5062787;28;20115;-67
2021/08/04 00:04:22;;;;;;;3.60;2.08;;;14.10;89.60;;;;;;5064006;28;20495;-67
2021/08/04 00:06:48;;;;;;;2.88;1.88;;;14.10;89.20;;;;;;5059415;28;20040;-67
2021/08/04 00:09:13;;;;;;;2.78;1.80;;;14.10;89.50;;;;;;5069424;28;20072;-66
2021/08/04 00:11:39;;;;;;;2.25;1.55;;;14.10;89.20;;;;;;5063356;28;20020;-67
2021/08/04 00:14:07;;;;;;;2.85;1.85;;;14.10;89.50;;;;;;5061322;28;20109;-67
2021/08/04 00:16:32;;;;;;;4.38;1.70;;;14.10;89.10;;;;;;5064983;28;20036;-69
2021/08/04 00:18:58;;;;;;;3.97;1.85;;;14.20;89.50;;;;;;5066353;28;20062;-68
2021/08/04 00:21:24;;;;;;;2.20;1.38;;;14.20;89.10;;;;;;5065709;28;20062;-68
2021/08/04 00:23:50;;;;;;;5.43;1.60;;;14.20;89.00;;;;;;5063140;28;20484;-67
2021/08/04 00:26:15;;;;;;;3.97;2.10;;;14.20;89.10;;;;;;5065601;28;20064;-67
2021/08/04 00:28:41;;;;;;;2.35;1.33;;;14.20;89.10;;;;;;5067117;28;20044;-68
2021/08/04 00:31:07;;;;;;;2.80;1.58;;;14.20;88.70;;;;;;5061406;28;20552;-66
2021/08/04 00:33:32;;;;;;;3.20;1.60;;;14.20;89.20;;;;;;5058859;28;20268;-67
2021/08/04 00:35:58;;;;;;;4.38;1.73;;;14.20;89.20;;;;;;5059063;28;20511;-67
2021/08/04 00:38:24;;;;;;;2.45;1.58;;;14.20;88.90;;;;;;5077056;28;20036;-67
2021/08/04 00:40:49;;;;;;;4.75;1.83;;;14.30;89.30;;;;;;5063808;28;20124;-66
2021/08/04 00:43:15;;;;;;;3.50;1.65;;;14.20;88.60;;;;;;5066610;28;20032;-66
2021/08/04 00:45:42;;;;;;;4.10;1.80;;;14.20;88.50;;;;;;5068974;28;20798;-66
2021/08/04 00:48:08;;;;;;;3.38;2.00;;;14.20;88.60;;;;;;5074854;28;20460;-67
2021/08/04 00:50:35;;;;;;;3.67;2.00;;;14.20;89.00;;;;;;5063994;28;20025;-67
2021/08/04 00:53:00;;;;;;;3.10;1.67;;;14.20;89.10;;;;;;5058301;28;20119;-67
2021/08/04 00:55:26;;;;;;;4.65;1.80;;;14.20;89.40;;;;;;5064111;28;20107;-66
2021/08/04 00:57:52;;;;;;;2.72;1.83;;;14.30;89.10;;;;;;5059161;28;20032;-67
2021/08/04 01:00:18;;;;;;;3.60;1.83;;;14.20;89.10;;;;;;5067126;28;20106;-67
2021/08/04 01:02:51;;;;;;;3.35;1.83;;;14.20;88.60;;;;;;5067687;28;20036;-67
2021/08/04 01:05:43;;;;;;;6.25;1.90;;;14.20;88.90;;;;;;5068279;28;20032;-66
2021/08/04 01:08:22;;;;;;;4.38;1.80;;;14.20;89.00;;;;;;5059410;28;20363;-68
2021/08/04 01:10:51;;;;;;;4.10;1.67;;;14.20;89.00;;;;;;5059657;28;20432;-66
2021/08/04 01:13:28;;;;;;;3.78;1.63;;;14.20;89.10;;;;;;5067766;28;20663;-66
2021/08/04 01:16:07;;;;;;;5.18;1.77;;;14.10;88.80;;;;;;5060310;28;20077;-67
2021/08/04 01:18:39;;;;;;;3.28;1.90;;;14.10;88.70;;;;;;5071095;28;20098;-67
2021/08/04 01:21:08;;;;;;;2.78;1.58;;;14.10;88.70;;;;;;5060126;28;20506;-67
2021/08/04 01:23:50;;;;;;;2.83;1.70;;;14.20;88.60;;;;;;5044760;28;20040;-67
2021/08/04 01:26:37;;;;;;;4.05;1.88;;;14.10;88.80;;;;;;5060995;28;20024;-66
2021/08/04 01:29:07;;;;;;;4.57;2.05;;;14.10;89.10;;;;;;5071618;28;20036;-67
2021/08/04 01:31:34;;;;;;;2.47;1.40;;;14.10;88.90;;;;;;5071686;28;20169;-66
2021/08/04 01:34:00;;;;;;;3.45;1.77;;;14.10;89.50;;;;;;5065006;28;20051;-67
2021/08/04 01:36:26;;;;;;;3.50;1.67;;;14.10;89.60;;;;;;5065094;28;20078;-66
2021/08/04 01:38:53;;;;;;;2.70;1.70;;;14.10;90.10;;;;;;5066190;28;20059;-68
2021/08/04 01:41:19;;;;;;;2.63;1.63;;;14.00;90.20;;;;;;5066368;28;20505;-66
2021/08/04 01:43:46;;;;;;;3.67;2.00;;;14.00;90.70;;;;;;5059521;28;20095;-66
2021/08/04 01:46:14;;;;;;;2.53;1.58;;;14.00;90.60;;;;;;5067469;28;20032;-66
2021/08/04 01:48:41;;;;;;;2.63;1.65;;;13.90;90.50;;;;;;5062924;28;20029;-68
2021/08/04 01:51:09;;;;;;;3.10;1.90;;;14.00;90.70;;;;;;5064625;28;20031;-68
2021/08/04 01:53:36;;;;;;;4.38;1.90;;;14.00;91.10;;;;;;5065828;28;20585;-68
2021/08/04 01:56:03;;;;;;;3.80;2.20;;;13.90;90.50;;;;;;5062483;28;20079;-66
2021/08/04 01:58:29;;;;;;;2.50;1.80;;;13.90;90.60;;;;;;5060600;28;20409;-67
2021/08/04 02:00:54;;;;;;;4.43;1.90;;;13.90;90.70;;;;;;5048354;28;20122;-66
2021/08/04 02:03:20;;;;;;;4.22;2.08;;;13.90;90.80;;;;;;5062088;28;20456;-67
2021/08/04 02:05:46;;;;;;;2.88;1.77;;;13.90;91.00;;;;;;5055366;28;20040;-67
2021/08/04 02:08:27;;;;;;;2.65;1.52;;;13.80;91.10;;;;;;5064658;28;20130;-67
2021/08/04 02:11:20;;;;;;;4.30;2.05;;;13.80;91.10;;;;;;5069458;28;20020;-66
2021/08/04 02:13:46;;;;;;;5.20;1.70;;;13.80;91.00;;;;;;5071053;28;20032;-67
2021/08/04 02:16:19;;;;;;;5.18;1.85;;;13.80;91.10;;;;;;5066934;28;20033;-67
2021/08/04 02:18:48;;;;;;;3.63;1.90;;;13.80;91.20;;;;;;5063152;28;20125;-67
2021/08/04 02:21:16;;;;;;;3.47;1.73;;;13.80;90.70;;;;;;5069256;28;20096;-67
2021/08/04 02:23:44;;;;;;;3.40;1.70;;;13.80;90.80;;;;;;5062975;28;20047;-67
2021/08/04 02:26:16;;;;;;;2.20;1.73;;;13.80;90.80;;;;;;5064147;28;20515;-67
2021/08/04 02:28:44;;;;;;;6.10;1.83;;;13.70;90.60;;;;;;5063644;28;20040;-67
2021/08/04 02:31:14;;;;;;;3.67;1.40;;;13.80;90.90;;;;;;5063169;28;20020;-67
2021/08/04 02:33:42;;;;;;;7.18;1.77;;;13.70;90.50;;;;;;5057465;28;20436;-67
2021/08/04 02:36:08;;;;;;;3.95;1.70;;;13.70;91.00;;;;;;5064665;28;20181;-68
2021/08/04 02:38:34;;;;;;;2.53;1.60;;;13.70;90.90;;;;;;5064289;28;20028;-67
2021/08/04 02:41:00;;;;;;;2.53;1.83;;;13.70;90.80;;;;;;5066699;28;20475;-66
2021/08/04 02:43:26;;;;;;;2.97;1.55;;;13.70;90.70;;;;;;5055098;28;20040;-66
2021/08/04 02:45:54;;;;;;;2.72;1.90;;;13.70;90.80;;;;;;5066223;28;20027;-66
2021/08/04 02:48:20;;;;;;;2.72;1.77;;;13.70;90.90;;;;;;5064560;28;20516;-67
2021/08/04 02:50:50;;;;;;;2.60;1.83;;;13.70;91.10;;;;;;5058940;28;20050;-67
2021/08/04 02:53:17;;;;;;;3.05;2.08;;;13.60;91.40;;;;;;5061277;28;20032;-66
2021/08/04 02:55:44;;;;;;;2.70;1.70;;;13.60;91.00;;;;;;5061214;28;20027;-67
2021/08/04 02:58:13;;;;;;;3.58;1.80;;;13.60;91.50;;;;;;5063504;28;20055;-68
2021/08/04 03:00:40;;;;;;;3.38;1.90;;;13.60;91.50;;;;;;5043010;28;20024;-67
2021/08/04 03:03:05;;;;;;;4.20;2.08;;;13.60;91.20;;;;;;5062381;28;20119;-66
2021/08/04 03:05:31;;;;;;;3.00;1.98;;;13.60;91.10;;;;;;5063439;28;20139;-66
2021/08/04 03:07:57;;;;;;;3.38;1.98;;;13.60;91.60;;;;;;5067010;28;20024;-66
2021/08/04 03:10:23;;;;;;;4.57;1.83;;;13.60;91.70;;;;;;5064161;28;20109;-66
2021/08/04 03:12:48;;;;;;;4.30;1.85;;;13.60;91.70;;;;;;5063872;28;20131;-66
2021/08/04 03:15:14;;;;;;;4.78;2.00;;;13.60;91.80;;;;;;5063353;28;20131;-66
2021/08/04 03:17:40;;;;;;;3.38;1.92;;;13.60;92.00;;;;;;5063661;28;20084;-66
2021/08/04 03:20:06;;;;;;;4.05;1.98;;;13.50;92.20;;;;;;5060273;28;20385;-66
2021/08/04 03:22:31;;;;;;;2.88;1.90;;;13.50;92.70;;;;;;5061470;28;20124;-66
2021/08/04 03:24:57;;;;;;;3.35;2.08;;;13.60;93.20;;;;;;5060674;28;20107;-66
2021/08/04 03:27:23;;;;;;;3.95;2.20;;;13.60;93.40;;;;;;5065845;28;20024;-66
2021/08/04 03:29:48;;;;;;;4.47;2.40;;;13.60;92.80;;;;;;5065019;28;20448;-64
2021/08/04 03:32:14;;;;;;;3.95;2.08;;;13.50;92.80;;;;;;5070633;28;20021;-66
2021/08/04 03:34:39;;;;;;;7.30;2.30;;;13.50;93.00;;;;;;5077935;28;20130;-65
2021/08/04 03:37:05;;;;;;;3.05;1.65;;;13.50;93.20;;;;;;5069398;28;20036;-67
2021/08/04 03:39:31;;;;;;;2.72;1.80;;;13.50;93.00;;;;;;5065805;28;20028;-65
2021/08/04 03:41:56;;;;;;;4.68;2.47;;;13.50;92.80;;;;;;5073223;28;20028;-67
2021/08/04 03:44:22;;;;;;;8.50;2.35;;;13.50;92.80;;;;;;5066598;28;20032;-66
2021/08/04 03:46:48;;;;;;;4.65;2.50;;;13.50;93.10;;;;;;5066712;28;20043;-65
2021/08/04 03:49:15;;;;;;;4.32;2.35;;;13.50;93.40;;;;;;5066600;28;20116;-66
2021/08/04 03:51:40;;;;;;;5.15;2.35;;;13.50;93.20;;;;;;5067606;28;20027;-66
2021/08/04 03:54:06;;;;;;;4.00;2.20;;;13.50;93.40;;;;;;5074333;28;20024;-66
2021/08/04 03:56:32;;;;;;;5.30;2.33;;;13.50;93.40;;;;;;5061290;28;20109;-67
2021/08/04 03:58:57;;;;;;;3.08;2.00;;;13.50;93.20;;;;;;5064501;28;20036;-67
2021/08/04 04:01:23;;;;;;;3.78;2.10;;;13.50;93.10;;;;;;5077882;28;20032;-66
2021/08/04 04:03:48;;;;;;;5.35;2.50;;;13.50;93.10;;;;;;5080650;28;20087;-64
2021/08/04 04:06:14;;;;;;;5.40;2.35;;;13.50;93.20;;;;;;5072561;28;20068;-66
2021/08/04 04:08:39;;;;;;;7.25;2.67;;;13.50;93.30;;;;;;5068420;28;20673;-66
2021/08/04 04:11:06;;;;;;;3.72;2.25;;;13.60;93.10;;;;;;5072333;28;20125;-66
2021/08/04 04:13:32;;;;;;;3.30;2.08;;;13.60;93.30;;;;;;5060297;28;20433;-65
2021/08/04 04:15:58;;;;;;;4.15;2.63;;;13.50;93.30;;;;;;5067721;28;20518;-66
2021/08/04 04:18:23;;;;;;;5.43;2.55;;;13.50;93.20;;;;;;5070514;28;20098;-66
2021/08/04 04:20:49;;;;;;;4.30;2.08;;;13.50;93.20;;;;;;5067012;28;20075;-66
2021/08/04 04:23:15;;;;;;;5.38;2.38;;;13.60;93.40;;;;;;5061873;28;20044;-66
2021/08/04 04:25:40;;;;;;;5.15;2.30;;;13.50;93.30;;;;;;5064454;28;20036;-66
2021/08/04 04:28:06;;;;;;;3.38;2.08;;;13.60;93.40;;;;;;5065027;28;20569;-66
2021/08/04 04:30:31;;;;;;;6.95;2.70;;;13.60;93.50;;;;;;5062222;28;20024;-67
2021/08/04 04:32:57;;;;;;;4.22;2.40;;;13.60;93.20;;;;;;5060403;28;20095;-67
2021/08/04 04:35:23;;;;;;;7.53;2.92;;;13.60;93.30;;;;;;5064775;28;20032;-66
2021/08/04 04:37:48;;;;;;;3.85;2.33;;;13.60;93.20;;;;;;5067390;28;20024;-65
2021/08/04 04:40:15;;;;;;;5.68;2.22;;;13.70;93.20;;;;;;5064945;28;20497;-66
2021/08/04 04:42:40;;;;;;;4.32;2.33;;;13.70;93.30;;;;;;5062217;28;20361;-67
2021/08/04 04:45:06;;;;;;;5.35;2.53;;;13.70;93.20;;;;;;5064100;28;20039;-68
2021/08/04 04:47:32;;;;;;;4.90;2.80;;;13.70;93.30;;;;;;5056859;28;20112;-67
2021/08/04 04:49:58;;;;;;;3.70;2.20;;;13.80;93.50;;;;;;5060324;28;20123;-66
2021/08/04 04:52:23;;;;;;;3.97;2.35;;;13.80;92.80;;;;;;5060819;28;20035;-66
2021/08/04 04:54:49;;;;;;;4.00;2.45;;;13.80;92.90;;;;;;5041820;28;20361;-66
2021/08/04 04:57:14;;;;;;;3.80;2.35;;;13.80;92.70;;;;;;5061178;28;20116;-67
2021/08/04 04:59:40;;;;;;;4.65;2.55;;;13.80;92.80;;;;;;5066357;28;20043;-66
2021/08/04 05:02:05;;;;;;;3.72;2.03;;;13.80;92.70;;;;;;5069902;28;20134;-67
2021/08/04 05:04:31;;;;;;;7.82;2.50;;;13.90;92.90;;;;;;5070529;28;20083;-66
2021/08/04 05:06:57;;;;;;;4.40;2.55;;;13.90;92.90;;;;;;5066191;28;20032;-66
2021/08/04 05:09:22;;;;;;;3.97;2.60;;;13.90;92.80;;;;;;5073744;28;20056;-66
2021/08/04 05:11:48;;;;;;;3.90;2.28;;;14.00;93.10;;;;;;5068126;28;20040;-67
2021/08/04 05:14:14;;;;;;;4.43;2.30;;;14.00;93.10;;;;;;5078972;28;20024;-67
2021/08/04 05:16:39;;;;;;;5.97;2.50;;;14.00;93.20;;;;;;5059418;28;20473;-67
2021/08/04 05:19:05;;;;;;;4.80;2.58;;;14.00;92.80;;;;;;5063256;28;20047;-67
2021/08/04 05:21:30;;;;;;;3.90;2.55;;;14.10;93.30;;;;;;5067175;28;20021;-67
2021/08/04 05:23:56;;;;;;;5.60;2.65;;;14.10;93.40;;;;;;5068961;28;20161;-67
2021/08/04 05:26:23;;;;;;;4.78;2.95;;;14.10;93.00;;;;;;5060046;28;20500;-67
2021/08/04 05:28:50;;;;;;;4.93;2.67;;;14.20;92.90;;;;;;5064506;28;20037;-66
2021/08/04 05:31:16;;;;;;;5.90;2.60;;;14.20;93.00;;;;;;5065755;28;20423;-67
2021/08/04 05:33:42;;;;;;;4.18;2.88;;;14.30;93.50;;;;;;5065079;28;20041;-67
2021/08/04 05:36:07;;;;;;;4.32;2.90;;;14.30;93.10;;;;;;5064821;28;20036;-66
2021/08/04 05:38:33;;;;;;;4.00;2.67;;;14.40;93.00;;;;;;5067456;28;20017;-67
2021/08/04 05:40:59;;;;;;;5.30;2.63;;;14.30;93.00;;;;;;5066536;28;20036;-67
2021/08/04 05:43:24;;;;;;;4.35;2.70;;;14.40;93.00;;;;;;5070196;28;20146;-67
2021/08/04 05:45:50;;;;;;;4.47;2.72;;;14.40;92.70;;;;;;5061624;28;20058;-66
2021/08/04 05:48:15;;;;;;;5.20;2.90;;;14.40;92.30;;;;;;5053121;28;20051;-67
2021/08/04 05:50:41;;;;;;;4.40;2.80;;;14.40;92.40;;;;;;5047161;28;20102;-67
2021/08/04 05:53:07;;;;;;;4.80;3.28;;;14.50;92.50;;;;;;5064548;28;20032;-67
2021/08/04 05:55:33;;;;;;;5.80;2.90;;;14.50;92.50;;;;;;5061607;28;20553;-67
2021/08/04 05:57:59;;;;;;;4.90;2.80;;;14.60;92.50;;;;;;5051252;28;20020;-67
2021/08/04 06:00:25;;;;;;;7.60;3.08;;;14.60;92.50;;;;;;5055235;28;20012;-67
2021/08/04 06:02:50;;;;;;;4.45;3.15;;;14.60;92.10;;;;;;5065822;28;20088;-66
2021/08/04 06:05:16;;;;;;;4.43;2.70;;;14.70;92.10;;;;;;5066853;28;20051;-67
2021/08/04 06:07:42;;;;;;;7.30;2.58;;;14.70;92.10;;;;;;5055796;28;20032;-67
2021/08/04 06:10:08;;;;;;;4.68;2.70;;;14.80;92.00;;;;;;5063915;28;20028;-67
2021/08/04 06:12:33;;;;;;;4.97;2.72;;;14.80;91.90;;;;;;5075110;28;20520;-67
2021/08/04 06:14:59;;;;;;;5.72;2.92;;;14.90;91.50;;;;;;5063156;28;20028;-67
2021/08/04 06:17:25;;;;;;;6.00;2.85;;;15.00;91.60;;;;;;5055937;28;20090;-67
2021/08/04 06:19:50;;;;;;;4.00;2.85;;;15.00;91.40;;;;;;5064672;28;20370;-66
2021/08/04 06:22:16;;;;;;;5.78;2.85;;;15.10;90.90;;;;;;5071870;28;20047;-67
2021/08/04 06:24:41;;;;;;;8.20;3.00;;;15.10;90.70;;;;;;5078199;28;20052;-67
2021/08/04 06:27:07;;;;;;;5.28;2.60;;;15.10;90.00;;;;;;5062293;28;20428;-67
2021/08/04 06:29:33;;;;;;;5.90;2.60;;;15.20;90.40;;;;;;5044975;28;20192;-67
2021/08/04 06:31:58;;;;;;;4.53;2.65;;;15.30;89.90;;;;;;5073094;28;20032;-68
2021/08/04 06:34:24;;;;;;;5.80;2.78;;;15.30;89.60;;;;;;5057734;28;20049;-67
2021/08/04 06:36:49;;;;;;;5.88;2.53;;;15.30;89.70;;;;;;5053483;28;20486;-65
2021/08/04 06:39:15;;;;;;;7.38;2.75;;;15.40;89.50;;;;;;5063452;28;20055;-67
2021/08/04 06:41:40;;;;;;;5.43;3.17;;;15.40;89.60;;;;;;5063857;28;20043;-67
2021/08/04 06:44:06;;;;;;;4.28;2.45;;;15.50;89.70;;;;;;5069941;28;20103;-67
2021/08/04 06:46:36;;;;;;;4.75;2.92;;;15.50;89.70;;;;;;5064288;28;20020;-70
2021/08/04 06:49:03;;;;;;;5.80;2.92;;;15.50;89.40;;;;;;5065963;28;20047;-67
2021/08/04 06:51:29;;;;;;;6.53;2.15;;;15.60;89.50;;;;;;5072086;28;20028;-67
2021/08/04 06:53:55;;;;;;;4.63;2.70;;;15.60;89.20;;;;;;5064304;28;20033;-67
2021/08/04 06:56:21;;;;;;;4.07;2.20;;;15.70;89.10;;;;;;5071063;28;20523;-67
2021/08/04 06:58:47;;;;;;;8.82;2.30;;;15.70;88.70;;;;;;5067155;28;20037;-67
2021/08/04 07:01:13;;;;;;;4.05;2.42;;;15.80;88.60;;;;;;5062658;28;20047;-67
2021/08/04 07:03:39;;;;;;;4.53;2.10;;;15.80;88.20;;;;;;5070276;28;20365;-68
2021/08/04 07:06:09;;;;;;;5.10;2.08;;;15.90;88.70;;;;;;5068938;28;20043;-68
2021/08/04 07:08:35;;;;;;;4.80;2.30;;;15.90;87.70;;;;;;5071723;28;20040;-68
2021/08/04 07:11:01;;;;;;;6.20;2.15;;;16.00;88.10;;;;;;5063577;28;20040;-68
2021/08/04 07:13:27;;;;;;;6.82;2.30;;;16.00;87.70;;;;;;5064307;28;20492;-68
2021/08/04 07:15:52;;;;;;;3.50;1.95;;;16.10;88.10;;;;;;5052102;28;20092;-68
2021/08/04 07:18:18;;;;;;;4.43;2.03;;;16.10;86.90;;;;;;5061789;28;20050;-68
2021/08/04 07:20:44;;;;;;;5.60;2.28;;;16.20;86.30;;;;;;5064021;28;20028;-69
2021/08/04 07:23:10;;;;;;;5.40;2.25;;;16.20;86.60;;;;;;5067808;28;20166;-68
2021/08/04 07:25:36;;;;;;;4.75;2.38;;;16.40;87.00;;;;;;5073746;28;20058;-67
2021/08/04 07:28:02;;;;;;;3.22;2.00;;;16.40;86.00;;;;;;5065547;28;20048;-68
2021/08/04 07:30:28;;;;;;;3.45;1.90;;;16.50;86.00;;;;;;5062585;28;20139;-69
2021/08/04 07:32:53;;;;;;;4.75;2.47;;;16.50;85.50;;;;;;5067558;28;20104;-69
2021/08/04 07:35:19;;;;;;;4.13;2.03;;;16.70;85.00;;;;;;5063577;28;20028;-69
2021/08/04 07:37:45;;;;;;;4.28;2.05;;;16.80;84.80;;;;;;5068752;28;20035;-68
2021/08/04 07:40:13;;;;;;;4.78;2.15;;;16.90;83.60;;;;;;5063542;28;20037;-69
2021/08/04 07:42:39;;;;;;;5.25;2.08;;;17.00;84.10;;;;;;5061330;28;20118;-68
2021/08/04 07:45:05;;;;;;;3.42;1.95;;;17.00;83.80;;;;;;5048301;28;20465;-68
2021/08/04 07:47:31;;;;;;;3.90;1.90;;;17.10;82.80;;;;;;5063641;28;20055;-68
2021/08/04 07:49:57;;;;;;;7.55;2.17;;;17.10;83.30;;;;;;5065783;28;20036;-69
2021/08/04 07:52:23;;;;;;;3.55;2.10;;;17.20;81.60;;;;;;5066346;28;20016;-69
2021/08/04 07:54:48;;;;;;;3.45;1.90;;;17.30;82.70;;;;;;5065019;28;20513;-69
2021/08/04 07:57:14;;;;;;;5.63;1.95;;;17.20;82.50;;;;;;5067321;28;20081;-69
2021/08/04 07:59:39;;;;;;;3.47;1.73;;;17.30;82.60;;;;;;5055556;28;20073;-69
2021/08/04 08:02:06;;;;;;;6.32;1.90;;;17.20;82.40;;;;;;5069394;28;20135;-69
2021/08/04 08:04:32;;;;;;;3.67;1.70;;;17.30;82.10;;;;;;5058831;28;20021;-68
2021/08/04 08:06:59;;;;;;;3.85;1.70;;;17.50;82.00;;;;;;5062827;28;20025;-68
2021/08/04 08:09:25;;;;;;;4.53;1.95;;;17.40;81.80;;;;;;5064670;28;20029;-69
2021/08/04 08:11:57;;;;;;;5.50;2.22;;;17.50;82.70;;;;;;5068212;28;20482;-68
2021/08/04 08:14:22;;;;;;;6.75;1.75;;;17.60;81.60;;;;;;5046851;28;20025;-68
2021/08/04 08:16:48;;;;;;;2.95;1.55;;;17.70;82.60;;;;;;5062090;28;20039;-69
2021/08/04 08:19:14;;;;;;;3.03;1.63;;;17.60;82.10;;;;;;5065022;28;20051;-69
2021/08/04 08:21:40;;;;;;;3.78;1.67;;;17.60;81.30;;;;;;5066648;28;20111;-69
2021/08/04 08:24:06;;;;;;;3.65;1.67;;;17.70;81.20;;;;;;5078161;28;20071;-69
2021/08/04 08:26:34;;;;;;;3.75;2.00;;;17.90;81.50;;;;;;5078175;28;20023;-69
2021/08/04 08:28:59;;;;;;;3.97;1.45;;;17.90;82.00;;;;;;5067086;28;20063;-69
2021/08/04 08:31:25;;;;;;;3.85;1.67;;;18.00;80.40;;;;;;5063896;28;20535;-69
2021/08/04 08:33:50;;;;;;;5.75;1.85;;;18.00;80.10;;;;;;5051676;28;20024;-68
2021/08/04 08:36:16;;;;;;;4.22;1.60;;;17.80;79.80;;;;;;5053115;28;20147;-69
2021/08/04 08:38:42;;;;;;;4.50;1.70;;;18.00;80.70;;;;;;5055599;28;20127;-69
2021/08/04 08:41:08;;;;;;;5.40;1.85;;;18.20;81.80;;;;;;5069979;28;20128;-69
2021/08/04 08:43:35;;;;;;;3.50;1.60;;;18.00;80.70;;;;;;5048977;28;20481;-69
2021/08/04 08:46:03;;;;;;;5.95;1.77;;;18.00;80.40;;;;;;5050353;28;20377;-69
2021/08/04 08:48:29;;;;;;;3.10;1.58;;;17.90;81.20;;;;;;5061777;28;20638;-69
2021/08/04 08:50:54;;;;;;;3.78;1.60;;;17.90;81.40;;;;;;5065762;28;20036;-69
2021/08/04 08:53:21;;;;;;;4.38;1.90;;;17.80;81.60;;;;;;5066307;28;20116;-67
2021/08/04 08:55:48;;;;;;;3.53;1.77;;;17.90;82.20;;;;;;5069256;28;20024;-69
2021/08/04 08:58:14;;;;;;;5.82;1.80;;;17.90;82.20;;;;;;5068735;28;20453;-69
2021/08/04 09:00:40;;;;;;;3.90;1.80;;;18.00;81.60;;;;;;5072472;28;20206;-69
2021/08/04 09:03:05;;;;;;;6.03;1.75;;;18.10;81.50;;;;;;5068497;28;20107;-69
2021/08/04 09:05:47;;;;;;;3.53;1.58;;;18.10;81.20;;;;;;5067245;28;21080;-68
2021/08/04 09:08:22;;;;;;;8.60;2.38;;;18.20;79.60;;;;;;5071121;28;20104;-69
2021/08/04 09:10:47;;;;;;;3.65;1.95;;;18.20;79.50;;;;;;5065033;28;20112;-69
2021/08/04 09:13:13;;;;;;;6.10;1.75;;;18.30;81.10;;;;;;5063558;28;20507;-69
2021/08/04 09:15:41;;;;;;;3.60;1.42;;;18.30;79.20;;;;;;5055850;28;20036;-69
2021/08/04 09:18:12;;;;;;;4.90;1.77;;;18.30;80.30;;;;;;5067455;28;20035;-69
2021/08/04 09:20:42;;;;;;;4.50;1.77;;;18.50;79.00;;;;;;5056764;28;20369;-69
2021/08/04 09:23:14;;;;;;;6.53;1.63;;;18.60;78.60;;;;;;5044156;28;20040;-68
2021/08/04 09:25:40;;;;;;;5.78;1.40;;;18.40;78.20;;;;;;5075121;28;20496;-69
2021/08/04 09:28:08;;;;;;;3.83;1.52;;;18.60;79.30;;;;;;5066912;28;20040;-69
2021/08/04 09:30:36;;;;;;;4.60;1.50;;;18.70;78.10;;;;;;5059194;28;20469;-69
2021/08/04 09:33:13;;;;;;;2.67;1.50;;;18.70;78.50;;;;;;5044767;28;20384;-69
2021/08/04 09:35:49;;;;;;;4.47;2.03;;;19.00;78.00;;;;;;5067923;28;20043;-70
2021/08/04 09:38:16;;;;;;;5.72;2.08;;;19.00;76.30;;;;;;5067343;28;20031;-69
2021/08/04 09:40:42;;;;;;;4.00;1.77;;;19.00;76.40;;;;;;5065145;28;20032;-68
2021/08/04 09:43:08;;;;;;;4.00;1.58;;;19.40;76.90;;;;;;5052864;28;20025;-68
2021/08/04 09:45:43;;;;;;;2.78;1.38;;;19.50;75.60;;;;;;5051159;28;20098;-69
2021/08/04 09:48:14;;;;;;;3.85;1.90;;;19.50;74.20;;;;;;5042950;28;20497;-68
2021/08/04 09:50:47;;;;;;;3.38;1.55;;;19.80;75.50;;;;;;5065482;28;20474;-68
2021/08/04 09:53:26;;;;;;;7.55;1.63;;;20.00;75.40;;;;;;5054579;28;20477;-68
2021/08/04 09:56:08;;;;;;;5.65;1.55;;;20.00;75.20;;;;;;5057896;28;20020;-68
2021/08/04 09:58:36;;;;;;;3.72;1.40;;;20.00;74.50;;;;;;5054153;28;20081;-69
2021/08/04 10:01:03;;;;;;;3.55;1.45;;;20.10;74.90;;;;;;5058912;28;20032;-68
2021/08/04 10:03:30;;;;;;;3.33;1.42;;;20.00;73.50;;;;;;5046050;28;20473;-68
2021/08/04 10:05:56;;;;;;;6.57;1.80;;;20.00;73.80;;;;;;5039368;28;20524;-68
2021/08/04 10:08:22;;;;;;;3.33;1.40;;;20.20;74.10;;;;;;5052300;28;20505;-68
2021/08/04 10:10:50;;;;;;;2.90;1.70;;;20.30;71.90;;;;;;5044658;28;20029;-68
2021/08/04 10:13:18;;;;;;;5.05;1.20;;;20.20;72.30;;;;;;5043953;28;20044;-69
2021/08/04 10:15:49;;;;;;;3.33;1.50;;;20.20;73.20;;;;;;5061344;28;20175;-68
2021/08/04 10:18:19;;;;;;;3.17;1.40;;;20.30;72.50;;;;;;5042834;28;20134;-68
2021/08/04 10:20:46;;;;;;;3.17;1.27;;;20.30;72.10;;;;;;5058719;28;20025;-69
2021/08/04 10:23:15;;;;;;;3.25;1.48;;;20.50;73.50;;;;;;5059487;28;20525;-68
2021/08/04 10:25:42;;;;;;;6.05;1.50;;;20.50;71.40;;;;;;5063165;28;20028;-68
2021/08/04 10:28:08;;;;;;;2.83;1.30;;;20.40;72.00;;;;;;5058625;28;20776;-67
2021/08/04 10:30:35;;;;;;;4.15;1.30;;;20.30;72.20;;;;;;5063340;28;20040;-68
2021/08/04 10:33:03;;;;;;;2.58;1.25;;;20.20;73.20;;;;;;5068592;28;20073;-68
2021/08/04 10:35:29;;;;;;;4.32;1.30;;;20.30;71.90;;;;;;5081990;28;20062;-69
2021/08/04 10:37:55;;;;;;;4.00;1.50;;;20.30;73.30;;;;;;5058999;28;20029;-68
2021/08/04 10:40:25;;;;;;;2.78;1.35;;;20.50;72.90;;;;;;5066030;28;20036;-66
2021/08/04 10:42:50;;;;;;;1.98;1.20;;;20.60;73.00;;;;;;5063093;28;20127;-68
2021/08/04 10:45:31;;;;;;;4.95;1.48;;;20.70;71.50;;;;;;5061287;28;20119;-68
2021/08/04 10:48:20;;;;;;;3.58;1.27;;;20.80;70.10;;;;;;5068283;28;20047;-69
2021/08/04 10:51:17;;;;;;;2.45;1.33;;;20.90;71.00;;;;;;5065359;28;20368;-69
2021/08/04 10:54:01;;;;;;;3.95;1.40;;;21.00;70.40;;;;;;5063301;28;20021;-69
2021/08/04 10:56:32;;;;;;;5.15;1.80;;;21.00;70.10;;;;;;5062096;28;20031;-69
2021/08/04 10:59:10;;;;;;;3.55;1.23;;;21.30;69.80;;;;;;5060936;28;20060;-69
2021/08/04 11:01:43;;;;;;;2.38;1.33;;;21.50;69.10;;;;;;5062087;28;20032;-69
2021/08/04 11:04:13;;;;;;;3.83;1.45;;;21.40;69.00;;;;;;5065974;28;20174;-68
2021/08/04 11:07:06;;;;;;;3.35;1.45;;;22.00;67.70;;;;;;5067170;28;20028;-69
2021/08/04 11:09:40;;;;;;;7.88;1.35;;;21.80;67.20;;;;;;5064633;28;20497;-69
2021/08/04 11:12:15;;;;;;;3.65;1.73;;;22.60;68.00;;;;;;5059463;28;20294;-69
2021/08/04 11:14:51;;;;;;;5.22;1.50;;;23.00;64.00;;;;;;5059665;28;20244;-69
2021/08/04 11:17:22;;;;;;;2.90;1.42;;;22.80;63.20;;;;;;5060161;28;20050;-69
2021/08/04 11:20:05;;;;;;;3.97;1.58;;;22.50;63.50;;;;;;5065041;28;20088;-70
2021/08/04 11:22:34;;;;;;;3.47;1.48;;;22.20;66.00;;;;;;5062316;28;20032;-69
2021/08/04 11:25:08;;;;;;;3.63;1.27;;;21.70;66.30;;;;;;5055174;28;20518;-69
2021/08/04 11:27:55;;;;;;;3.78;1.13;;;21.80;67.00;;;;;;5060029;28;20078;-68
2021/08/04 11:30:29;;;;;;;4.57;1.55;;;21.90;68.00;;;;;;5065511;28;20029;-69
2021/08/04 11:33:22;;;;;;;3.83;1.10;;;22.00;65.90;;;;;;5059715;28;20353;-69
2021/08/04 11:36:02;;;;;;;4.28;1.30;;;22.20;66.20;;;;;;5046542;28;20369;-68
2021/08/04 11:38:41;;;;;;;4.72;1.20;;;22.30;65.10;;;;;;5052864;28;20408;-66
2021/08/04 11:41:26;;;;;;;3.75;1.30;;;22.40;66.70;;;;;;5060091;28;20401;-69
2021/08/04 11:43:59;;;;;;;5.25;1.55;;;22.30;66.90;;;;;;5055085;28;20024;-67
2021/08/04 11:47:09;;;;;;;4.68;1.48;;;22.30;65.40;;;;;;5063418;28;20070;-67
2021/08/04 11:49:37;;;;;;;3.20;1.30;;;22.20;67.20;;;;;;5051783;28;20481;-68
2021/08/04 11:52:07;;;;;;;2.58;1.50;;;22.20;67.20;;;;;;5060383;28;20361;-69
2021/08/04 11:54:59;;;;;;;5.32;1.80;;;22.40;64.20;;;;;;5070325;28;20392;-68
2021/08/04 11:57:25;;;;;;;3.40;1.20;;;22.40;64.90;;;;;;5056195;28;20121;-68
2021/08/04 11:59:56;;;;;;;2.60;1.10;;;22.50;65.90;;;;;;5056809;28;20025;-69
2021/08/04 12:02:23;;;;;;;2.92;1.40;;;22.70;64.80;;;;;;5051846;28;20051;-68
2021/08/04 12:04:53;;;;;;;4.22;1.27;;;22.70;63.60;;;;;;5067534;28;20101;-69
2021/08/04 12:07:31;;;;;;;4.10;1.52;;;23.10;64.80;;;;;;5063948;28;20096;-69
2021/08/04 12:10:02;;;;;;;3.95;1.60;;;23.70;60.50;;;;;;5065743;28;20112;-69
2021/08/04 12:12:35;;;;;;;2.50;1.15;;;24.30;60.70;;;;;;5066955;28;20354;-69
2021/08/04 12:15:12;;;;;;;5.95;1.88;;;24.70;59.00;;;;;;5060839;28;20099;-70
2021/08/04 12:17:38;;;;;;;6.60;1.30;;;24.30;57.70;;;;;;5059064;28;20032;-70
2021/08/04 12:20:15;;;;;;;2.95;1.35;;;25.10;58.40;;;;;;5059255;28;20032;-69
2021/08/04 12:22:42;;;;;;;1.88;1.23;;;25.40;57.40;;;;;;5069542;28;20533;-70
2021/08/04 12:25:09;;;;;;;3.50;1.38;;;26.30;55.80;;;;;;5046549;28;20044;-70
2021/08/04 12:27:41;;;;;;;4.05;1.20;;;26.60;51.60;;;;;;5060287;28;20060;-69
2021/08/04 12:30:41;;;;;;;3.42;1.67;;;26.90;53.60;;;;;;5066007;28;20039;-70
2021/08/04 12:33:19;;;;;;;6.45;1.83;;;27.00;51.40;;;;;;5023499;28;20439;-69
2021/08/04 12:36:00;;;;;;;5.15;1.20;;;26.30;50.60;;;;;;5071857;28;20024;-69
2021/08/04 12:38:26;;;;;;;2.03;1.20;;;25.80;54.30;;;;;;5062704;28;20029;-70
2021/08/04 12:40:54;;;;;;;3.90;1.38;;;26.40;52.60;;;;;;5065402;28;20029;-70
2021/08/04 12:43:22;;;;;;;2.08;1.10;;;26.90;48.80;;;;;;5059377;28;20464;-67
2021/08/04 12:45:55;;;;;;;2.20;1.25;;;27.00;47.20;;;;;;5060201;28;20387;-69
2021/08/04 12:48:37;;;;;;;6.40;1.67;;;27.00;48.90;;;;;;5051818;28;20424;-70
2021/08/04 12:51:04;;;;;;;3.25;1.30;;;27.20;50.10;;;;;;5058758;28;20073;-70
2021/08/04 12:53:32;;;;;;;2.40;1.10;;;26.70;49.00;;;;;;5067385;28;20399;-69
2021/08/04 12:56:06;;;;;;;4.63;1.20;;;25.90;51.70;;;;;;5061178;28;20091;-69